createdAt,value
2022-12-26T00:00:55.700Z,99283.21
2022-12-26T00:03:22.937Z,99280.11
2022-12-26T00:05:53.412Z,99274.02
2022-12-26T00:08:21.461Z,99270.48
2022-12-26T00:10:48.439Z,99274.84
2022-12-26T00:13:40.032Z,99280.52
2022-12-26T00:16:11.614Z,99285.64
2022-12-26T00:18:38.952Z,99280.22
2022-12-26T00:21:07.096Z,99277.13
2022-12-26T00:23:34.459Z,99281.81
2022-12-26T00:26:05.693Z,99280.13
2022-12-26T00:28:32.788Z,99263.46
2022-12-26T00:31:03.553Z,99265.17
2022-12-26T00:33:30.616Z,99259.31
2022-12-26T00:36:02.677Z,99266.84
2022-12-26T00:38:31.693Z,99274.54
2022-12-26T00:40:58.653Z,99276.15
2022-12-26T00:43:25.637Z,99273.05
2022-12-26T00:45:54.003Z,99274.05
2022-12-26T00:48:21.088Z,99277.64
2022-12-26T00:50:47.970Z,99284.65
2022-12-26T00:53:14.848Z,99280.48
2022-12-26T00:55:41.845Z,99272.85
2022-12-26T00:58:08.981Z,99271.58
2022-12-26T01:00:36.218Z,99270.91
2022-12-26T01:03:04.066Z,99261.39
2022-12-26T01:05:31.094Z,99258.65
2022-12-26T01:08:21.492Z,99249.05
2022-12-26T01:10:46.410Z,99250.09
2022-12-26T01:13:13.833Z,99255.71
2022-12-26T01:15:40.641Z,99257.98
2022-12-26T01:18:08.096Z,99252.48
2022-12-26T01:20:35.058Z,99243.88
2022-12-26T01:23:01.966Z,99236.63
2022-12-26T01:25:29.131Z,99241.38
2022-12-26T01:27:56.518Z,99248.48
2022-12-26T01:30:24.512Z,99239.73
2022-12-26T01:32:51.483Z,99232.95
2022-12-26T01:35:19.471Z,99231.83
2022-12-26T01:37:46.273Z,99229.58
2022-12-26T01:40:13.452Z,99229.47
2022-12-26T01:42:40.720Z,99229.81
2022-12-26T01:45:24.659Z,99232.06
2022-12-26T01:47:53.148Z,99232.76
2022-12-26T01:50:29.158Z,99226.36
2022-12-26T01:52:57.353Z,99223.97
2022-12-26T01:55:24.328Z,99217.70
2022-12-26T01:58:02.793Z,99222.77
2022-12-26T02:00:29.845Z,99227.59
2022-12-26T02:03:15.360Z,99219.98
2022-12-26T02:05:42.510Z,99202.49
2022-12-26T02:08:14.915Z,99202.77
2022-12-26T02:10:50.830Z,99203.45
2022-12-26T02:13:18.503Z,99203.69
2022-12-26T02:15:45.513Z,99198.61
2022-12-26T02:18:12.329Z,99197.63
2022-12-26T02:21:10.041Z,99191.05
2022-12-26T02:24:19.217Z,99186.09
2022-12-26T02:26:48.778Z,99183.56
2022-12-26T02:29:55.846Z,99183.67
2022-12-26T02:32:53.707Z,99175.97
2022-12-26T02:35:35.600Z,99175.56
2022-12-26T02:38:34.416Z,99170.94
2022-12-26T02:41:48.313Z,99177.24
2022-12-26T02:44:43.402Z,99191.86
2022-12-26T02:47:25.928Z,99200.59
2022-12-26T02:50:22.700Z,99195.58
2022-12-26T02:53:30.778Z,99194.75
2022-12-26T02:56:19.292Z,99195.48
2022-12-26T02:59:14.500Z,99192.91
2022-12-26T03:02:03.271Z,99193.34
2022-12-26T03:04:51.282Z,99169.86
2022-12-26T03:07:42.919Z,99146.66
2022-12-26T03:10:44.369Z,99135.06
2022-12-26T03:13:12.751Z,99144.52
2022-12-26T03:16:03.043Z,99149.73
2022-12-26T03:18:57.155Z,99150.75
2022-12-26T03:21:18.317Z,99143.23
2022-12-26T03:23:45.280Z,99131.94
2022-12-26T03:26:35.583Z,99124.41
2022-12-26T03:29:21.589Z,99117.38
2022-12-26T03:31:48.425Z,99114.53
2022-12-26T03:34:18.639Z,99113.80
2022-12-26T03:37:13.102Z,99112.23
2022-12-26T03:40:15.111Z,99124.65
2022-12-26T03:43:16.165Z,99127.75
2022-12-26T03:46:04.915Z,99136.02
2022-12-26T03:48:58.429Z,99141.04
2022-12-26T03:52:15.804Z,99140.43
2022-12-26T03:55:07.197Z,99148.63
2022-12-26T03:57:57.983Z,99144.42
2022-12-26T04:00:43.442Z,99139.63
2022-12-26T04:03:31.334Z,99135.84
2022-12-26T04:06:17.855Z,99140.12
2022-12-26T04:09:29.465Z,99145.00
2022-12-26T04:12:15.238Z,99148.73
2022-12-26T04:15:13.648Z,99149.73
2022-12-26T04:18:22.678Z,99151.64
2022-12-26T04:21:30.916Z,99152.47
2022-12-26T04:24:19.050Z,99149.55
2022-12-26T04:27:05.084Z,99136.52
2022-12-26T04:29:50.714Z,99150.47
2022-12-26T04:32:50.079Z,99151.48
2022-12-26T04:35:39.556Z,99159.95
2022-12-26T04:38:25.197Z,99158.70
2022-12-26T04:41:16.008Z,99154.52
2022-12-26T04:44:01.647Z,99157.17
2022-12-26T04:46:29.775Z,99149.86
2022-12-26T04:49:15.440Z,99141.42
2022-12-26T04:51:42.473Z,99133.60
2022-12-26T04:54:09.326Z,99128.49
2022-12-26T04:56:36.180Z,99122.50
2022-12-26T04:59:03.351Z,99119.84
2022-12-26T05:01:49.396Z,99114.23
2022-12-26T05:04:36.873Z,99108.74
2022-12-26T05:07:23.358Z,99104.06
2022-12-26T05:09:52.170Z,99095.20
2022-12-26T05:12:19.222Z,99088.64
2022-12-26T05:14:46.106Z,99087.49
2022-12-26T05:17:32.164Z,99091.14
2022-12-26T05:20:17.935Z,99083.47
2022-12-26T05:23:05.922Z,99080.54
2022-12-26T05:25:54.067Z,99083.94
2022-12-26T05:28:39.818Z,99082.10
2022-12-26T05:31:06.888Z,99077.83
2022-12-26T05:33:54.760Z,99072.77
2022-12-26T05:36:22.629Z,99065.11
2022-12-26T05:38:49.564Z,99054.27
2022-12-26T05:41:16.591Z,99057.02
2022-12-26T05:43:44.872Z,99053.89
2022-12-26T05:46:12.035Z,99049.65
2022-12-26T05:48:39.757Z,99050.28
2022-12-26T05:51:06.821Z,99058.95
2022-12-26T05:53:33.910Z,99053.03
2022-12-26T05:56:13.834Z,99051.99
2022-12-26T05:58:40.892Z,99057.27
2022-12-26T06:01:12.788Z,99061.65
2022-12-26T06:03:40.317Z,99060.80
2022-12-26T06:06:07.409Z,99056.35
2022-12-26T06:08:37.071Z,99056.93
2022-12-26T06:11:09.113Z,99060.45
2022-12-26T06:13:36.959Z,99060.16
2022-12-26T06:16:08.196Z,99062.41
2022-12-26T06:18:35.399Z,99060.33
2022-12-26T06:21:06.924Z,99061.40
2022-12-26T06:23:34.588Z,99055.55
2022-12-26T06:26:02.096Z,99056.36
2022-12-26T06:28:29.537Z,99052.05
2022-12-26T06:31:07.898Z,99047.25
2022-12-26T06:33:36.310Z,99042.10
2022-12-26T06:36:14.347Z,99033.42
2022-12-26T06:38:41.497Z,99028.58
2022-12-26T06:41:09.736Z,99030.20
2022-12-26T06:43:36.689Z,99038.04
2022-12-26T06:46:04.576Z,99040.15
2022-12-26T06:48:32.358Z,99040.84
2022-12-26T06:51:06.937Z,99038.14
2022-12-26T06:53:34.230Z,99044.61
2022-12-26T06:56:12.389Z,99047.20
2022-12-26T06:58:39.362Z,99042.43
2022-12-26T07:01:16.695Z,99041.00
2022-12-26T07:03:50.725Z,99039.73
2022-12-26T07:06:24.319Z,99031.76
2022-12-26T07:08:52.361Z,99032.36
2022-12-26T07:11:21.887Z,99027.05
2022-12-26T07:13:48.835Z,99019.02
2022-12-26T07:16:16.001Z,99012.57
2022-12-26T07:18:42.971Z,99008.46
2022-12-26T07:21:11.717Z,99006.67
2022-12-26T07:23:38.662Z,98995.59
2022-12-26T07:26:06.388Z,98994.95
2022-12-26T07:28:33.326Z,99003.54
2022-12-26T07:31:00.849Z,98999.02
2022-12-26T07:33:28.635Z,98993.27
2022-12-26T07:36:00.031Z,98992.48
2022-12-26T07:38:28.138Z,98999.42
2022-12-26T07:40:56.569Z,99006.23
2022-12-26T07:43:23.887Z,99000.89
2022-12-26T07:45:51.108Z,99007.65
2022-12-26T07:48:18.109Z,99003.11
2022-12-26T07:50:49.427Z,99007.20
2022-12-26T07:53:16.335Z,99009.84
2022-12-26T07:55:43.173Z,99014.80
2022-12-26T07:58:10.152Z,99008.14
2022-12-26T08:00:36.981Z,99013.27
2022-12-26T08:03:07.738Z,99004.96
2022-12-26T08:05:35.193Z,99003.66
2022-12-26T08:08:02.342Z,99003.40
2022-12-26T08:10:29.423Z,99004.13
2022-12-26T08:12:56.381Z,99004.14
2022-12-26T08:15:23.457Z,98999.59
2022-12-26T08:17:50.677Z,98991.94
2022-12-26T08:20:17.678Z,98989.05
2022-12-26T08:22:44.621Z,98990.98
2022-12-26T08:25:13.407Z,98999.15
2022-12-26T08:27:44.306Z,99001.73
2022-12-26T08:30:12.609Z,99000.62
2022-12-26T08:32:42.466Z,98994.67
2022-12-26T08:35:11.252Z,98990.55
2022-12-26T08:37:38.208Z,98980.84
2022-12-26T08:40:05.786Z,98980.06
2022-12-26T08:42:34.639Z,98977.47
2022-12-26T08:47:26.433Z,98967.65
2022-12-26T08:49:53.566Z,98960.45
2022-12-26T08:52:20.420Z,98961.36
2022-12-26T08:54:47.937Z,98956.17
2022-12-26T08:57:15.688Z,98950.57
2022-12-26T08:59:44.988Z,98941.69
2022-12-26T09:02:12.356Z,98936.04
2022-12-26T09:04:39.460Z,98927.98
2022-12-26T09:07:08.284Z,98926.70
2022-12-26T09:09:35.591Z,98922.92
2022-12-26T09:12:02.988Z,98914.27
2022-12-26T09:14:29.928Z,98905.31
2022-12-26T09:16:57.189Z,98897.70
2022-12-26T09:19:24.599Z,98900.77
2022-12-26T09:22:11.485Z,98911.56
2022-12-26T09:24:38.518Z,98917.34
2022-12-26T09:27:05.483Z,98916.44
2022-12-26T09:29:34.117Z,98905.05
2022-12-26T09:32:01.117Z,98902.02
2022-12-26T09:34:27.915Z,98901.73
2022-12-26T09:36:54.741Z,98901.75
2022-12-26T09:39:21.754Z,98895.66
2022-12-26T09:42:07.514Z,98893.05
2022-12-26T09:44:45.817Z,98896.86
2022-12-26T09:47:33.923Z,98900.13
2022-12-26T09:50:06.180Z,98898.01
2022-12-26T09:52:45.881Z,98899.80
2022-12-26T09:55:40.616Z,98908.13
2022-12-26T09:58:29.971Z,98903.40
2022-12-26T12:48:10.245Z,98706.36
2022-12-26T12:50:39.263Z,98696.15
2022-12-26T12:53:52.693Z,98692.02
2022-12-26T12:56:38.396Z,98680.54
2022-12-26T12:59:47.674Z,98668.85
2022-12-26T13:02:30.116Z,98665.45
2022-12-26T13:05:03.441Z,98674.17
2022-12-26T13:07:35.194Z,98683.46
2022-12-26T13:10:03.549Z,98685.84
2022-12-26T13:12:37.278Z,98680.55
2022-12-26T13:15:09.378Z,98676.32
2022-12-26T13:17:41.332Z,98678.30
2022-12-26T13:20:21.757Z,98678.13
2022-12-26T13:23:13.803Z,98673.15
2022-12-26T13:25:46.918Z,98679.92
2022-12-26T13:28:23.447Z,98678.41
2022-12-26T13:30:54.657Z,98673.83
2022-12-26T13:33:21.524Z,98673.77
2022-12-26T13:35:52.789Z,98678.02
2022-12-26T13:38:20.771Z,98676.48
2022-12-26T13:40:56.959Z,98679.05
2022-12-26T13:43:43.018Z,98676.04
2022-12-26T13:46:42.518Z,98682.75
2022-12-26T13:49:28.190Z,98693.12
2022-12-26T13:52:00.182Z,98693.99
2022-12-26T13:54:28.005Z,98685.91
2022-12-26T13:57:04.857Z,98681.66
2022-12-26T13:59:55.896Z,98672.02
2022-12-26T14:03:15.293Z,98663.61
2022-12-26T14:05:40.731Z,98663.22
2022-12-26T14:08:54.730Z,98664.70
2022-12-26T14:11:28.121Z,98672.19
2022-12-26T14:14:21.997Z,98676.09
2022-12-26T14:16:48.865Z,98685.13
2022-12-26T14:19:54.876Z,98679.46
2022-12-26T14:22:33.877Z,98666.14
2022-12-26T14:25:00.962Z,98664.80
2022-12-26T14:27:40.960Z,98661.67
2022-12-26T14:30:46.045Z,98645.54
2022-12-26T14:33:25.102Z,98633.09
2022-12-26T14:36:16.993Z,98638.72
2022-12-26T14:39:23.011Z,98639.54
2022-12-26T14:42:27.151Z,98643.47
2022-12-26T14:44:57.683Z,98650.55
2022-12-26T14:47:48.444Z,98654.98
2022-12-26T14:50:40.638Z,98655.48
2022-12-26T14:53:20.735Z,98662.14
2022-12-26T14:55:48.007Z,98665.42
2022-12-26T14:58:21.124Z,98670.63
2022-12-26T15:00:48.378Z,98659.80
2022-12-26T15:03:27.492Z,98647.81
2022-12-26T15:05:54.315Z,98649.23
2022-12-26T15:08:54.067Z,98650.07
2022-12-26T15:11:39.931Z,98645.09
2022-12-26T15:14:28.257Z,98647.42
2022-12-26T15:17:07.863Z,98648.13
2022-12-26T15:20:03.114Z,98643.29
2022-12-26T15:22:50.782Z,98638.13
2022-12-26T15:25:51.857Z,98642.98
2022-12-26T15:28:37.458Z,98640.45
2022-12-26T15:31:31.645Z,98655.73
2022-12-26T15:34:23.731Z,98653.77
2022-12-26T15:37:45.694Z,98652.86
2022-12-26T15:40:15.195Z,98657.98
2022-12-26T15:42:52.430Z,98659.88
2022-12-26T15:45:27.928Z,98657.95
2022-12-26T15:48:18.984Z,98658.71
2022-12-26T15:50:56.832Z,98659.20
2022-12-26T15:53:36.080Z,98649.58
2022-12-26T15:56:14.505Z,98654.02
2022-12-26T15:58:52.512Z,98648.43
2022-12-26T16:01:39.858Z,98656.74
2022-12-26T16:04:13.909Z,98653.33
2022-12-26T16:06:49.940Z,98653.19
2022-12-26T16:09:45.649Z,98651.74
2022-12-26T16:12:32.224Z,98643.54
2022-12-26T16:15:00.367Z,98642.73
2022-12-26T16:17:28.100Z,98640.83
2022-12-26T16:19:55.041Z,98639.80
2022-12-26T16:22:46.919Z,98635.40
2022-12-26T16:25:23.401Z,98638.65
2022-12-26T16:27:52.302Z,98641.55
2022-12-26T16:30:21.974Z,98644.92
2022-12-26T16:32:48.931Z,98647.52
2022-12-26T16:35:38.656Z,98651.28
2022-12-26T16:38:06.859Z,98657.60
2022-12-26T16:40:37.563Z,98662.11
2022-12-26T16:43:23.920Z,98660.40
2022-12-26T16:45:54.536Z,98652.98
2022-12-26T16:48:23.344Z,98649.95
2022-12-26T16:50:52.535Z,98637.95
2022-12-26T16:53:25.232Z,98636.27
2022-12-26T16:55:55.876Z,98634.64
2022-12-26T16:58:24.317Z,98624.21
2022-12-26T17:01:11.945Z,98617.99
2022-12-26T17:03:54.261Z,98617.76
2022-12-26T17:06:40.416Z,98612.55
2022-12-26T17:09:09.759Z,98615.44
2022-12-26T17:12:04.981Z,98606.91
2022-12-26T17:14:33.200Z,98597.84
2022-12-26T17:17:26.020Z,98600.52
2022-12-26T17:19:54.875Z,98601.79
2022-12-26T17:22:32.135Z,98602.67
2022-12-26T17:25:17.524Z,98612.16
2022-12-26T17:27:45.103Z,98610.30
2022-12-26T17:30:31.540Z,98604.77
2022-12-26T17:33:03.854Z,98605.27
2022-12-26T17:35:47.040Z,98608.12
2022-12-26T17:38:21.008Z,98607.84
2022-12-26T17:40:47.893Z,98620.41
2022-12-26T17:43:14.726Z,98623.46
2022-12-26T17:45:47.008Z,98623.41
2022-12-26T17:48:14.396Z,98623.54
2022-12-26T17:50:45.849Z,98614.41
2022-12-26T17:53:12.668Z,98619.55
2022-12-26T17:55:39.730Z,98618.45
2022-12-26T17:58:10.901Z,98618.55
2022-12-26T18:00:37.907Z,98614.06
2022-12-26T18:03:04.876Z,98609.02
2022-12-26T18:05:33.229Z,98612.34
2022-12-26T18:08:00.204Z,98602.28
2022-12-26T18:10:31.557Z,98609.30
2022-12-26T18:12:58.720Z,98610.08
2022-12-26T18:15:27.214Z,98607.79
2022-12-26T18:17:54.213Z,98609.84
2022-12-26T18:20:25.718Z,98600.89
2022-12-26T18:22:52.927Z,98588.52
2022-12-26T18:25:21.799Z,98587.82
2022-12-26T18:27:48.898Z,98586.08
2022-12-26T18:30:17.717Z,98584.18
2022-12-26T18:32:44.790Z,98574.30
2022-12-26T18:35:12.135Z,98570.20
2022-12-26T18:37:39.094Z,98565.96
2022-12-26T18:40:06.603Z,98552.59
2022-12-26T18:42:33.567Z,98547.86
2022-12-26T18:45:00.597Z,98541.73
2022-12-26T18:47:27.541Z,98533.12
2022-12-26T18:49:54.473Z,98541.10
2022-12-26T18:52:21.314Z,98544.13
2022-12-26T18:54:48.274Z,98544.80
2022-12-26T18:57:19.439Z,98544.79
2022-12-26T18:59:48.241Z,98552.17
2022-12-26T20:53:27.294Z,98533.91
2022-12-26T20:55:54.641Z,98529.21
2022-12-26T20:58:25.282Z,98525.52
2022-12-26T21:01:01.696Z,98523.02
2022-12-26T21:03:29.261Z,98525.05
2022-12-26T21:06:08.373Z,98524.95
2022-12-26T21:08:35.872Z,98523.36
2022-12-26T21:11:09.696Z,98525.66
2022-12-26T21:13:37.618Z,98531.38
2022-12-26T21:16:18.159Z,98536.19
2022-12-26T21:18:45.112Z,98543.52
2022-12-26T21:21:13.924Z,98551.64
2022-12-26T21:23:40.815Z,98559.05
2022-12-26T21:26:07.972Z,98560.59
2022-12-26T21:28:34.902Z,98559.39
2022-12-26T21:31:02.364Z,98566.48
2022-12-26T21:33:30.329Z,98570.92
2022-12-26T21:35:57.484Z,98562.86
2022-12-26T21:38:27.576Z,98562.92
2022-12-26T21:40:54.441Z,98560.38
2022-12-26T21:43:22.520Z,98548.64
2022-12-26T21:45:49.558Z,98548.08
2022-12-26T21:48:16.633Z,98546.83
2022-12-26T21:50:45.784Z,98539.85
2022-12-26T21:53:13.135Z,98539.34
2022-12-26T21:55:40.336Z,98548.21
2022-12-26T21:58:07.688Z,98552.45
2022-12-26T22:00:35.553Z,98545.44
2022-12-26T22:03:21.360Z,98537.98
2022-12-26T22:05:48.386Z,98533.98
2022-12-26T22:08:15.470Z,98529.11
2022-12-26T22:11:23.110Z,98532.82
2022-12-26T22:13:50.248Z,98531.94
2022-12-26T22:16:17.202Z,98532.98
2022-12-26T22:18:46.163Z,98529.41
2022-12-26T22:21:20.673Z,98529.00
2022-12-26T22:23:50.576Z,98530.59
2022-12-26T22:26:18.493Z,98529.20
2022-12-26T22:28:45.536Z,98522.71
2022-12-26T22:31:31.721Z,98522.25
2022-12-26T22:34:09.959Z,98525.41
2022-12-26T22:36:37.088Z,98534.23
2022-12-26T22:39:04.137Z,98533.42
2022-12-26T22:41:31.187Z,98532.49
2022-12-26T22:43:58.181Z,98532.20
2022-12-26T22:46:25.216Z,98530.14
2022-12-26T22:48:52.219Z,98533.33
2022-12-26T22:51:24.041Z,98532.71
2022-12-26T22:53:54.014Z,98537.77
2022-12-26T22:56:22.002Z,98528.02
2022-12-26T22:58:53.064Z,98523.30
2022-12-26T23:01:20.470Z,98524.62
2022-12-26T23:03:47.437Z,98531.04
2022-12-26T23:06:26.682Z,98524.15
2022-12-26T23:08:56.726Z,98523.23
2022-12-26T23:11:28.802Z,98516.94
2022-12-26T23:14:01.521Z,98505.35
2022-12-26T23:16:31.540Z,98511.66
2022-12-26T23:19:23.887Z,98506.89
2022-12-26T23:21:50.998Z,98501.09
2022-12-26T23:24:20.739Z,98500.64
2022-12-26T23:26:49.601Z,98496.23
2022-12-26T23:29:37.288Z,98491.13
2022-12-26T23:32:04.699Z,98490.95
2022-12-26T23:34:31.960Z,98488.71
2022-12-26T23:36:59.054Z,98487.69
2022-12-26T23:39:28.370Z,98487.15
2022-12-26T23:41:55.365Z,98490.21
2022-12-26T23:44:22.474Z,98489.32
2022-12-26T23:46:49.557Z,98493.05
2022-12-26T23:49:16.914Z,98491.80
2022-12-26T23:51:43.828Z,98491.94
2022-12-26T23:54:10.821Z,98496.98
2022-12-26T23:56:37.821Z,98495.30
2022-12-26T23:59:05.339Z,98494.36
